createdAt,value
2018-01-26T00:02:21.188Z,100192.36
2018-01-26T00:04:48.645Z,100199.12
2018-01-26T00:07:16.108Z,100200.09
2018-01-26T00:09:43.553Z,100201.50
2018-01-26T00:12:11.194Z,100201.70
2018-01-26T00:14:38.651Z,100201.78
2018-01-26T00:17:06.092Z,100203.50
2018-01-26T00:19:33.552Z,100201.78
2018-01-26T00:22:00.997Z,100195.96
2018-01-26T00:24:28.682Z,100190.66
2018-01-26T00:26:56.121Z,100192.58
2018-01-26T00:29:23.561Z,100191.12
2018-01-26T00:31:51.017Z,100188.34
2018-01-26T00:34:18.454Z,100184.28
2018-01-26T00:36:46.067Z,100191.91
2018-01-26T00:39:13.508Z,100215.44
2018-01-26T00:41:40.945Z,100218.97
2018-01-26T00:44:08.432Z,100218.19
2018-01-26T00:46:35.869Z,100226.92
2018-01-26T00:49:03.341Z,100232.73
2018-01-26T00:51:30.785Z,100229.97
2018-01-26T00:53:58.229Z,100229.14
2018-01-26T00:56:25.688Z,100231.83
2018-01-26T00:58:53.167Z,100229.47
2018-01-26T01:01:21.143Z,100231.95
2018-01-26T01:03:48.636Z,100224.76
2018-01-26T01:06:16.292Z,100220.78
2018-01-26T01:08:43.752Z,100220.16
2018-01-26T01:11:11.185Z,100224.55
2018-01-26T01:13:38.938Z,100227.06
2018-01-26T01:16:06.377Z,100230.61
2018-01-26T01:18:33.808Z,100223.16
2018-01-26T01:21:01.282Z,100220.20
2018-01-26T01:23:28.718Z,100215.37
2018-01-26T01:25:56.436Z,100212.36
2018-01-26T01:28:23.888Z,100226.13
2018-01-26T01:30:51.324Z,100227.81
2018-01-26T01:33:18.777Z,100229.69
2018-01-26T01:35:46.212Z,100222.27
2018-01-26T01:38:13.708Z,100222.69
2018-01-26T01:40:41.141Z,100219.67
2018-01-26T01:43:08.576Z,100226.80
2018-01-26T01:45:36.081Z,100226.11
2018-01-26T01:48:03.517Z,100232.08
2018-01-26T01:50:30.977Z,100229.45
2018-01-26T01:52:58.420Z,100234.38
2018-01-26T01:55:25.852Z,100242.34
2018-01-26T01:57:53.309Z,100239.81
2018-01-26T02:00:20.744Z,100232.28
2018-01-26T02:02:48.572Z,100232.40
2018-01-26T02:05:16.005Z,100237.27
2018-01-26T02:07:43.461Z,100237.60
2018-01-26T02:10:10.925Z,100244.64
2018-01-26T02:12:38.357Z,100242.55
2018-01-26T02:15:05.850Z,100234.77
2018-01-26T02:17:33.842Z,100238.48
2018-01-26T02:20:01.305Z,100233.72
2018-01-26T02:22:28.805Z,100227.00
2018-01-26T02:24:56.264Z,100225.64
2018-01-26T02:27:23.852Z,100225.72
2018-01-26T02:29:51.292Z,100223.77
2018-01-26T02:32:18.733Z,100227.61
2018-01-26T02:34:46.190Z,100233.41
2018-01-26T02:37:13.636Z,100231.45
2018-01-26T02:39:41.340Z,100235.73
2018-01-26T02:42:08.990Z,100230.48
2018-01-26T02:44:36.433Z,100226.05
2018-01-26T02:47:03.923Z,100235.00
2018-01-26T02:49:31.362Z,100244.82
2018-01-26T02:51:58.849Z,100238.23
2018-01-26T02:54:26.289Z,100236.74
2018-01-26T02:56:53.733Z,100237.11
2018-01-26T02:59:21.188Z,100244.69
2018-01-26T03:01:48.632Z,100236.89
2018-01-26T03:04:16.421Z,100240.53
2018-01-26T03:06:43.861Z,100235.52
2018-01-26T03:09:11.298Z,100240.36
2018-01-26T03:11:38.761Z,100240.72
2018-01-26T03:14:06.197Z,100244.32
2018-01-26T03:16:33.896Z,100245.83
2018-01-26T03:19:01.338Z,100249.68
2018-01-26T03:21:28.784Z,100251.74
2018-01-26T03:23:56.245Z,100246.53
2018-01-26T03:26:23.696Z,100247.00
2018-01-26T03:28:51.421Z,100256.73
2018-01-26T03:31:18.865Z,100247.44
2018-01-26T03:33:46.324Z,100253.18
2018-01-26T03:36:13.784Z,100253.75
2018-01-26T03:38:41.465Z,100254.87
2018-01-26T03:41:09.284Z,100257.58
2018-01-26T03:43:36.728Z,100271.05
2018-01-26T03:46:04.160Z,100278.63
2018-01-26T03:48:31.620Z,100271.72
2018-01-26T03:50:59.073Z,100270.77
2018-01-26T03:53:26.562Z,100279.02
2018-01-26T03:55:53.997Z,100270.66
2018-01-26T03:58:21.442Z,100271.27
2018-01-26T04:00:48.909Z,100274.94
2018-01-26T04:03:16.344Z,100270.55
2018-01-26T04:05:44.069Z,100278.89
2018-01-26T04:08:11.505Z,100289.23
2018-01-26T04:10:38.949Z,100295.86
2018-01-26T04:13:06.412Z,100292.69
2018-01-26T04:15:33.849Z,100296.62
2018-01-26T04:18:01.585Z,100294.48
2018-01-26T04:20:29.021Z,100306.56
2018-01-26T04:22:56.463Z,100305.92
2018-01-26T04:25:23.925Z,100313.98
2018-01-26T04:27:51.357Z,100315.36
2018-01-26T04:30:19.042Z,100325.72
2018-01-26T04:32:46.489Z,100327.00
2018-01-26T04:35:13.954Z,100328.20
2018-01-26T04:37:41.412Z,100328.28
2018-01-26T04:40:08.851Z,100330.14
2018-01-26T04:42:36.626Z,100337.62
2018-01-26T04:45:04.071Z,100342.17
2018-01-26T04:47:31.517Z,100342.25
2018-01-26T04:49:58.977Z,100347.77
2018-01-26T04:52:26.421Z,100353.07
2018-01-26T04:54:54.034Z,100354.89
2018-01-26T04:57:21.472Z,100354.23
2018-01-26T04:59:48.908Z,100355.12
2018-01-26T05:02:16.365Z,100352.67
2018-01-26T05:04:43.801Z,100353.94
2018-01-26T05:07:11.277Z,100359.25
2018-01-26T05:09:38.724Z,100349.91
2018-01-26T05:12:06.158Z,100352.59
2018-01-26T05:14:33.624Z,100357.36
2018-01-26T05:17:01.061Z,100362.23
2018-01-26T05:19:28.541Z,100352.53
2018-01-26T05:21:56.010Z,100360.87
2018-01-26T05:24:23.452Z,100360.83
2018-01-26T05:26:50.905Z,100362.98
2018-01-26T05:29:18.356Z,100367.78
2018-01-26T05:31:46.153Z,100370.41
2018-01-26T05:34:13.584Z,100371.18
2018-01-26T05:36:41.089Z,100378.73
2018-01-26T05:39:08.604Z,100383.95
2018-01-26T05:41:36.049Z,100386.98
2018-01-26T05:44:03.773Z,100390.42
2018-01-26T05:46:31.209Z,100383.25
2018-01-26T05:48:58.648Z,100387.99
2018-01-26T05:51:26.109Z,100388.96
2018-01-26T05:53:53.832Z,100389.34
2018-01-26T05:56:21.448Z,100388.16
2018-01-26T05:58:48.894Z,100391.69
2018-01-26T06:01:16.333Z,100394.05
2018-01-26T06:03:43.793Z,100405.98
2018-01-26T06:06:11.330Z,100397.62
2018-01-26T06:08:39.036Z,100400.73
2018-01-26T06:11:06.477Z,100403.79
2018-01-26T06:13:33.913Z,100403.34
2018-01-26T06:16:01.373Z,100404.73
2018-01-26T06:18:28.809Z,100404.39
2018-01-26T06:20:56.432Z,100406.07
2018-01-26T06:23:23.871Z,100408.01
2018-01-26T06:25:51.308Z,100413.47
2018-01-26T06:28:18.808Z,100416.34
2018-01-26T06:30:46.250Z,100416.14
2018-01-26T06:33:13.736Z,100421.72
2018-01-26T06:35:41.193Z,100422.12
2018-01-26T06:38:08.655Z,100418.19
2018-01-26T06:40:36.126Z,100412.91
2018-01-26T06:43:03.564Z,100420.86
2018-01-26T06:45:31.038Z,100418.58
2018-01-26T06:47:58.501Z,100419.46
2018-01-26T06:50:26.137Z,100419.42
2018-01-26T06:52:53.608Z,100419.50
2018-01-26T06:55:21.074Z,100416.48
2018-01-26T06:57:48.520Z,100419.10
2018-01-26T07:00:16.053Z,100427.12
2018-01-26T07:02:43.520Z,100428.45
2018-01-26T07:05:10.959Z,100426.69
2018-01-26T07:07:38.423Z,100424.45
2018-01-26T07:10:05.873Z,100429.67
2018-01-26T07:12:33.322Z,100429.05
2018-01-26T07:15:00.785Z,100432.39
2018-01-26T07:17:28.233Z,100439.03
2018-01-26T07:19:55.701Z,100444.02
2018-01-26T07:22:23.157Z,100447.17
2018-01-26T07:24:50.618Z,100451.55
2018-01-26T07:27:18.060Z,100457.77
2018-01-26T07:29:45.521Z,100465.80
2018-01-26T07:32:12.957Z,100464.08
2018-01-26T07:34:40.416Z,100476.42
2018-01-26T07:37:07.873Z,100479.48
2018-01-26T07:39:35.320Z,100480.91
2018-01-26T07:42:02.777Z,100487.50
2018-01-26T07:44:30.245Z,100492.38
2018-01-26T07:46:57.677Z,100488.45
2018-01-26T07:49:25.113Z,100492.31
2018-01-26T07:51:52.620Z,100498.56
2018-01-26T07:54:20.029Z,100503.00
2018-01-26T07:56:47.501Z,100495.03
2018-01-26T07:59:14.996Z,100489.52
2018-01-26T08:01:43.333Z,100494.64
2018-01-26T08:04:10.776Z,100501.58
2018-01-26T08:06:38.258Z,100509.42
2018-01-26T08:09:05.701Z,100509.88
2018-01-26T08:14:06.077Z,100510.19
2018-01-26T08:16:33.513Z,100512.92
2018-01-26T08:19:00.972Z,100516.27
2018-01-26T08:21:28.432Z,100518.80
2018-01-26T08:23:55.889Z,100514.33
2018-01-26T08:26:23.341Z,100529.60
2018-01-26T08:28:50.781Z,100528.67
2018-01-26T08:31:18.216Z,100527.72
2018-01-26T08:33:45.685Z,100525.74
2018-01-26T08:36:13.128Z,100531.33
2018-01-26T08:38:40.573Z,100530.78
2018-01-26T08:41:08.035Z,100521.55
2018-01-26T08:43:35.468Z,100519.84
2018-01-26T08:46:02.926Z,100520.04
2018-01-26T08:48:30.441Z,100525.20
2018-01-26T08:50:57.865Z,100522.48
2018-01-26T08:53:25.308Z,100523.02
2018-01-26T08:55:52.772Z,100536.17
2018-01-26T08:58:20.213Z,100528.72
2018-01-26T09:00:47.665Z,100537.21
2018-01-26T09:03:15.517Z,100530.02
2018-01-26T09:05:42.953Z,100530.03
2018-01-26T09:08:10.388Z,100539.28
2018-01-26T09:10:38.109Z,100545.70
2018-01-26T09:13:05.545Z,100548.37
2018-01-26T09:15:32.981Z,100549.94
2018-01-26T09:18:00.765Z,100565.15
2018-01-26T09:20:28.209Z,100565.22
2018-01-26T09:22:55.657Z,100564.66
2018-01-26T09:25:23.168Z,100563.47
2018-01-26T09:27:50.604Z,100560.98
2018-01-26T09:30:18.038Z,100561.55
2018-01-26T09:32:45.525Z,100567.19
2018-01-26T09:35:13.011Z,100571.44
2018-01-26T09:37:40.472Z,100577.75
2018-01-26T09:40:08.073Z,100574.15
2018-01-26T09:42:35.518Z,100573.75
2018-01-26T09:45:02.966Z,100576.24
2018-01-26T09:47:30.655Z,100575.39
2018-01-26T09:49:58.102Z,100581.95
2018-01-26T09:52:25.536Z,100579.87
2018-01-26T09:54:53.005Z,100572.59
2018-01-26T09:57:20.642Z,100582.84
2018-01-26T09:59:48.073Z,100585.72
2018-01-26T10:02:16.069Z,100586.39
2018-01-26T10:04:43.523Z,100582.17
2018-01-26T10:07:10.999Z,100582.48
2018-01-26T10:09:38.681Z,100584.27
2018-01-26T10:12:06.121Z,100594.03
2018-01-26T10:14:33.582Z,100590.10
2018-01-26T10:17:01.096Z,100589.15
2018-01-26T10:19:28.536Z,100588.63
2018-01-26T10:21:55.976Z,100593.77
2018-01-26T10:24:23.557Z,100588.66
2018-01-26T10:26:50.992Z,100592.70
2018-01-26T10:29:18.437Z,100589.31
2018-01-26T10:31:46.116Z,100595.41
2018-01-26T10:34:13.557Z,100597.03
2018-01-26T10:36:40.992Z,100590.06
2018-01-26T10:39:08.778Z,100595.73
2018-01-26T10:41:36.213Z,100592.66
2018-01-26T10:44:03.649Z,100597.71
2018-01-26T10:46:31.465Z,100589.30
2018-01-26T10:48:58.925Z,100589.30
2018-01-26T10:51:26.368Z,100591.23
2018-01-26T10:53:54.027Z,100592.86
2018-01-26T10:56:21.473Z,100595.98
2018-01-26T10:58:52.833Z,100595.44
2018-01-26T11:01:20.342Z,100598.67
2018-01-26T11:03:47.785Z,100599.72
2018-01-26T11:06:15.277Z,100598.01
2018-01-26T11:08:42.736Z,100596.98
2018-01-26T11:11:10.192Z,100603.13
2018-01-26T11:13:37.633Z,100604.20
2018-01-26T11:16:05.095Z,100607.86
2018-01-26T11:18:33.001Z,100619.52
2018-01-26T11:21:00.490Z,100614.08
2018-01-26T11:23:27.950Z,100616.89
2018-01-26T11:25:55.572Z,100629.66
2018-01-26T11:28:23.013Z,100626.75
2018-01-26T11:30:50.488Z,100616.43
2018-01-26T11:33:17.929Z,100625.11
2018-01-26T11:35:45.381Z,100626.47
2018-01-26T11:38:12.876Z,100620.66
2018-01-26T11:40:40.317Z,100626.94
2018-01-26T11:43:07.762Z,100632.48
2018-01-26T11:45:35.427Z,100633.59
2018-01-26T11:48:02.987Z,100637.66
2018-01-26T11:50:30.428Z,100647.94
2018-01-26T11:52:58.101Z,100645.19
2018-01-26T11:55:25.540Z,100647.28
2018-01-26T11:57:53.029Z,100654.00
2018-01-26T12:00:20.506Z,100650.25
2018-01-26T12:02:47.984Z,100651.38
2018-01-26T12:05:16.156Z,100653.92
2018-01-26T12:07:43.969Z,100649.84
2018-01-26T12:10:11.409Z,100649.91
2018-01-26T12:12:38.865Z,100651.20
2018-01-26T12:15:06.501Z,100658.05
2018-01-26T12:17:33.949Z,100659.03
2018-01-26T12:20:01.393Z,100662.35
2018-01-26T12:22:28.871Z,100667.41
2018-01-26T12:24:56.319Z,100662.01
2018-01-26T12:27:23.761Z,100665.58
2018-01-26T12:29:51.241Z,100662.80
2018-01-26T12:32:18.685Z,100669.36
2018-01-26T12:34:46.157Z,100678.54
2018-01-26T12:37:13.766Z,100680.58
2018-01-26T12:39:41.214Z,100684.70
2018-01-26T12:42:08.653Z,100676.91
2018-01-26T12:44:36.432Z,100676.56
2018-01-26T12:47:03.940Z,100672.16
2018-01-26T12:49:31.382Z,100677.83
2018-01-26T12:51:59.209Z,100688.66
2018-01-26T12:54:26.666Z,100690.43
2018-01-26T12:56:54.113Z,100695.34
2018-01-26T12:59:21.889Z,100695.16
2018-01-26T13:01:49.339Z,100680.53
2018-01-26T13:04:16.777Z,100679.20
2018-01-26T13:06:44.460Z,100678.70
2018-01-26T13:09:11.931Z,100687.55
2018-01-26T13:11:39.418Z,100684.75
2018-01-26T13:14:07.048Z,100687.63
2018-01-26T13:16:34.497Z,100684.81
2018-01-26T13:19:01.937Z,100685.42
2018-01-26T13:21:29.439Z,100686.39
2018-01-26T13:23:56.881Z,100683.78
2018-01-26T13:26:24.325Z,100678.89
2018-01-26T13:28:51.797Z,100682.88
2018-01-26T13:31:19.288Z,100688.06
2018-01-26T13:33:46.717Z,100700.33
2018-01-26T13:36:14.341Z,100698.67
2018-01-26T13:38:41.783Z,100703.20
2018-01-26T13:41:09.221Z,100704.73
2018-01-26T13:43:36.713Z,100708.76
2018-01-26T13:46:04.153Z,100711.45
2018-01-26T13:48:31.785Z,100716.80
2018-01-26T13:50:59.960Z,100714.32
2018-01-26T13:53:27.405Z,100717.15
2018-01-26T13:55:55.007Z,100723.72
2018-01-26T13:58:22.357Z,100727.67
2018-01-26T14:00:49.797Z,100737.59
2018-01-26T14:03:17.278Z,100751.27
2018-01-26T14:05:45.402Z,100758.91
2018-01-26T14:08:12.845Z,100755.87
2018-01-26T14:10:40.304Z,100760.25
2018-01-26T14:13:07.748Z,100758.87
2018-01-26T14:15:35.407Z,100755.70
2018-01-26T14:18:02.856Z,100755.84
2018-01-26T14:20:30.297Z,100767.55
2018-01-26T14:22:57.762Z,100767.16
2018-01-26T14:25:25.219Z,100772.80
2018-01-26T14:27:52.747Z,100768.84
2018-01-26T14:30:20.186Z,100786.23
2018-01-26T14:32:47.621Z,100786.32
2018-01-26T14:35:15.077Z,100788.81
2018-01-26T14:37:42.552Z,100788.23
2018-01-26T14:40:10.200Z,100789.98
2018-01-26T14:42:37.647Z,100792.97
2018-01-26T14:45:05.084Z,100795.30
2018-01-26T14:47:32.545Z,100801.85
2018-01-26T14:50:00.017Z,100801.91
2018-01-26T14:52:27.773Z,100810.28
2018-01-26T14:54:55.228Z,100809.37
2018-01-26T14:57:22.693Z,100805.02
2018-01-26T14:59:50.213Z,100805.77
2018-01-26T15:02:17.664Z,100810.51
2018-01-26T15:04:45.348Z,100808.18
2018-01-26T15:07:12.785Z,100803.80
2018-01-26T15:09:40.267Z,100813.19
2018-01-26T15:12:07.725Z,100809.45
2018-01-26T15:14:35.169Z,100805.11
2018-01-26T15:17:02.829Z,100811.13
2018-01-26T15:19:30.264Z,100810.63
2018-01-26T15:21:57.701Z,100818.89
2018-01-26T15:24:25.156Z,100822.17
2018-01-26T15:26:52.605Z,100827.88
2018-01-26T15:29:20.429Z,100828.88
2018-01-26T15:31:47.864Z,100833.42
2018-01-26T15:34:15.401Z,100827.43
2018-01-26T15:36:42.860Z,100822.12
2018-01-26T15:39:10.295Z,100827.84
2018-01-26T15:41:38.515Z,100836.25
2018-01-26T15:44:05.998Z,100841.92
2018-01-26T15:46:33.433Z,100841.50
2018-01-26T15:49:00.905Z,100843.39
2018-01-26T15:51:28.341Z,100849.63
2018-01-26T15:53:56.007Z,100862.55
2018-01-26T15:56:23.620Z,100866.95
2018-01-26T15:58:51.061Z,100865.09
2018-01-26T16:01:18.530Z,100863.00
2018-01-26T16:03:45.969Z,100870.09
2018-01-26T16:06:13.839Z,100867.82
2018-01-26T16:08:41.319Z,100867.78
2018-01-26T16:11:08.764Z,100870.03
2018-01-26T16:13:36.218Z,100877.22
2018-01-26T16:16:03.661Z,100877.70
2018-01-26T16:18:31.429Z,100879.12
2018-01-26T16:21:02.816Z,100890.84
2018-01-26T16:23:30.258Z,100888.78
2018-01-26T16:25:57.714Z,100892.63
2018-01-26T16:28:25.170Z,100892.16
2018-01-26T16:30:52.969Z,100897.48
2018-01-26T16:33:20.409Z,100899.00
2018-01-26T16:35:47.847Z,100907.73
2018-01-26T16:38:15.306Z,100909.30
2018-01-26T16:40:42.749Z,100917.77
2018-01-26T16:43:10.365Z,100917.03
2018-01-26T16:45:37.861Z,100924.59
2018-01-26T16:48:05.305Z,100926.98
2018-01-26T16:50:32.775Z,100927.86
2018-01-26T16:53:00.212Z,100934.97
2018-01-26T16:55:27.673Z,100934.66
2018-01-26T16:57:56.125Z,100938.68
2018-01-26T17:00:23.561Z,100947.06
2018-01-26T17:02:51.020Z,100946.63
2018-01-26T17:05:18.473Z,100950.19
2018-01-26T17:07:45.956Z,100952.46
2018-01-26T17:10:13.597Z,100957.73
2018-01-26T17:12:41.084Z,100961.67
2018-01-26T17:15:08.549Z,100966.98
2018-01-26T17:17:36.001Z,100969.13
2018-01-26T17:20:03.640Z,100975.33
2018-01-26T17:22:31.080Z,100972.69
2018-01-26T17:24:58.513Z,100982.87
2018-01-26T17:27:26.009Z,100981.52
2018-01-26T17:29:53.444Z,100987.66
2018-01-26T17:32:20.917Z,100995.23
2018-01-26T17:34:48.364Z,100997.89
2018-01-26T17:37:15.801Z,101003.65
2018-01-26T17:39:43.276Z,101007.73
2018-01-26T17:42:10.713Z,101010.39
2018-01-26T17:44:38.410Z,101013.85
2018-01-26T17:47:05.848Z,101018.62
2018-01-26T17:49:33.300Z,101020.41
2018-01-26T17:52:00.769Z,101020.34
2018-01-26T17:54:28.352Z,101021.14
2018-01-26T17:56:56.021Z,101030.90
2018-01-26T17:59:23.518Z,101025.59
2018-01-26T18:01:51.332Z,101033.98
2018-01-26T18:04:18.857Z,101037.99
2018-01-26T18:06:46.331Z,101045.96
2018-01-26T18:09:13.989Z,101048.16
2018-01-26T18:11:41.432Z,101057.87
2018-01-26T18:14:08.877Z,101055.67
2018-01-26T18:16:36.691Z,101063.22
2018-01-26T18:19:04.474Z,101059.20
2018-01-26T18:21:32.285Z,101058.23
2018-01-26T18:24:00.158Z,101059.20
2018-01-26T18:26:27.742Z,101057.45
2018-01-26T18:28:55.483Z,101062.73
2018-01-26T18:31:23.056Z,101060.45
2018-01-26T18:33:50.837Z,101070.66
2018-01-26T18:36:18.351Z,101076.94
2018-01-26T18:38:46.103Z,101087.97
2018-01-26T18:41:13.741Z,101085.78
2018-01-26T18:43:41.256Z,101090.63
2018-01-26T18:46:10.618Z,101105.19
2018-01-26T18:48:38.101Z,101108.73
2018-01-26T18:51:05.881Z,101120.66
2018-01-26T18:53:33.498Z,101115.80
2018-01-26T18:56:01.041Z,101122.43
2018-01-26T18:58:28.930Z,101122.00
2018-01-26T19:00:56.428Z,101128.16
2018-01-26T19:03:23.909Z,101136.55
2018-01-26T19:05:51.383Z,101140.05
2018-01-26T19:08:18.820Z,101139.17
2018-01-26T19:10:46.313Z,101139.16
2018-01-26T19:13:13.749Z,101145.80
2018-01-26T19:15:41.233Z,101147.57
2018-01-26T19:18:08.716Z,101156.36
2018-01-26T19:20:36.156Z,101166.08
2018-01-26T19:23:03.834Z,101161.21
2018-01-26T19:25:31.276Z,101162.09
2018-01-26T19:27:58.747Z,101166.91
2018-01-26T19:30:26.234Z,101167.39
2018-01-26T19:32:53.669Z,101163.86
2018-01-26T19:35:21.173Z,101163.86
2018-01-26T19:37:48.625Z,101159.02
2018-01-26T19:40:16.065Z,101167.38
2018-01-26T19:42:43.592Z,101170.03
2018-01-26T19:45:11.033Z,101172.23
2018-01-26T19:47:38.513Z,101171.34
2018-01-26T19:50:06.095Z,101171.77
2018-01-26T19:52:33.604Z,101169.57
2018-01-26T19:55:01.449Z,101174.42
2018-01-26T19:57:28.905Z,101178.36
2018-01-26T19:59:56.384Z,101173.52
2018-01-26T20:02:23.832Z,101177.48
2018-01-26T20:05:09.112Z,101186.26
2018-01-26T20:07:43.267Z,101184.06
2018-01-26T20:10:11.887Z,101194.62
2018-01-26T20:12:44.966Z,101196.78
2018-01-26T20:15:12.913Z,101195.02
2018-01-26T20:17:40.497Z,101202.02
2018-01-26T20:20:07.990Z,101202.46
2018-01-26T20:22:35.456Z,101212.13
2018-01-26T20:25:02.994Z,101212.14
2018-01-26T20:27:30.654Z,101223.19
2018-01-26T20:29:58.141Z,101218.30
2018-01-26T20:32:25.594Z,101226.22
2018-01-26T20:34:53.107Z,101231.55
2018-01-26T20:37:20.554Z,101230.56
2018-01-26T20:39:48.261Z,101228.80
2018-01-26T20:42:15.697Z,101233.19
2018-01-26T20:44:43.175Z,101248.60
2018-01-26T20:47:10.635Z,101249.97
2018-01-26T20:49:38.101Z,101251.34
2018-01-26T20:52:05.769Z,101249.98
2018-01-26T20:54:33.204Z,101260.09
2018-01-26T20:57:00.646Z,101257.88
2018-01-26T20:59:28.110Z,101254.74
2018-01-26T21:01:55.556Z,101261.73
2018-01-26T21:04:23.343Z,101264.66
2018-01-26T21:06:51.615Z,101265.11
2018-01-26T21:09:19.057Z,101266.84
2018-01-26T21:11:46.527Z,101268.98
2018-01-26T21:14:13.965Z,101279.11
2018-01-26T21:16:41.645Z,101283.16
2018-01-26T21:19:09.160Z,101284.42
2018-01-26T21:21:36.640Z,101284.81
2018-01-26T21:24:04.137Z,101287.09
2018-01-26T21:26:31.598Z,101293.16
2018-01-26T21:28:59.060Z,101302.39
2018-01-26T21:31:26.523Z,101300.63
2018-01-26T21:33:54.009Z,101303.28
2018-01-26T21:36:21.465Z,101308.64
2018-01-26T21:38:48.906Z,101308.63
2018-01-26T21:41:16.521Z,101302.89
2018-01-26T21:43:43.956Z,101309.88
2018-01-26T21:46:11.399Z,101309.95
2018-01-26T21:48:38.874Z,101314.86
2018-01-26T21:51:06.332Z,101318.32
2018-01-26T21:53:34.007Z,101315.00
2018-01-26T21:56:01.475Z,101318.52
2018-01-26T21:58:28.917Z,101321.63
2018-01-26T22:00:56.373Z,101319.41
2018-01-26T22:03:23.812Z,101324.58
2018-01-26T22:05:51.388Z,101325.91
2018-01-26T22:08:18.832Z,101331.20
2018-01-26T22:10:46.289Z,101343.52
2018-01-26T22:13:13.749Z,101341.34
2018-01-26T22:15:41.196Z,101350.09
2018-01-26T22:18:08.683Z,101356.13
2018-01-26T22:20:36.161Z,101356.57
2018-01-26T22:23:04.203Z,101358.34
2018-01-26T22:25:31.669Z,101368.58
2018-01-26T22:27:59.177Z,101365.50
2018-01-26T22:30:26.636Z,101369.34
2018-01-26T22:32:54.081Z,101375.05
2018-01-26T22:35:21.736Z,101385.73
2018-01-26T22:37:49.286Z,101397.23
2018-01-26T22:40:16.725Z,101390.20
2018-01-26T22:42:44.442Z,101393.54
2018-01-26T22:45:11.929Z,101404.09
2018-01-26T22:47:39.369Z,101405.50
2018-01-26T22:50:06.824Z,101409.00
2018-01-26T22:52:34.261Z,101397.90
2018-01-26T22:55:01.829Z,101413.28
2018-01-26T22:57:29.269Z,101413.27
2018-01-26T22:59:56.719Z,101417.25
2018-01-26T23:02:24.568Z,101416.25
2018-01-26T23:04:52.048Z,101419.34
2018-01-26T23:07:19.955Z,101419.42
2018-01-26T23:09:47.392Z,101416.37
2018-01-26T23:12:14.828Z,101416.66
2018-01-26T23:14:42.327Z,101422.38
2018-01-26T23:17:09.768Z,101428.12
2018-01-26T23:19:37.452Z,101433.84
2018-01-26T23:22:04.909Z,101430.26
2018-01-26T23:24:32.358Z,101425.81
2018-01-26T23:26:59.821Z,101433.83
2018-01-26T23:29:27.264Z,101434.91
2018-01-26T23:31:54.745Z,101434.09
2018-01-26T23:34:22.182Z,101428.73
2018-01-26T23:36:49.633Z,101435.34
2018-01-26T23:39:17.090Z,101439.12
2018-01-26T23:41:44.529Z,101450.06
2018-01-26T23:44:12.007Z,101454.77
2018-01-26T23:46:39.446Z,101452.66
2018-01-26T23:49:06.889Z,101451.41
2018-01-26T23:51:34.361Z,101441.56
2018-01-26T23:54:01.811Z,101441.59
2018-01-26T23:56:29.456Z,101442.28
2018-01-26T23:58:56.913Z,101441.03
